createdAt,value
2018-07-16T08:49:28.194Z,28.13
2018-07-16T09:32:08.146Z,28.32
2018-07-16T09:34:18.314Z,28.34
2018-07-16T09:49:22.907Z,28.39
2018-07-16T10:08:26.447Z,28.50
2018-07-16T10:35:41.438Z,29.05
2018-07-16T11:36:30.190Z,28.13
2018-07-16T11:55:23.438Z,28.18
2018-07-16T12:01:30.514Z,28.16
2018-07-16T12:37:09.077Z,27.86
2018-07-16T13:56:45.439Z,27.91
2018-07-16T15:17:29.195Z,27.23
2018-07-16T15:32:28.074Z,27.11
2018-07-16T15:47:28.152Z,26.96
2018-07-16T16:02:28.068Z,26.99
2018-07-16T16:17:28.793Z,27.02
2018-07-16T16:32:28.622Z,26.98
2018-07-16T16:47:28.636Z,27.00
2018-07-16T17:02:28.497Z,26.99
2018-07-16T17:17:28.130Z,26.93
2018-07-16T17:32:28.127Z,27.01
2018-07-16T17:47:28.155Z,27.11
2018-07-16T18:02:28.163Z,27.20
2018-07-16T18:17:28.143Z,27.23
2018-07-16T18:32:28.189Z,27.22
2018-07-16T18:47:28.730Z,27.13
2018-07-16T19:02:28.161Z,26.92
2018-07-16T19:17:28.191Z,26.73
2018-07-16T19:32:28.286Z,26.47
2018-07-16T19:47:28.269Z,26.42
2018-07-16T20:02:28.182Z,26.20
2018-07-16T20:17:28.055Z,26.11
2018-07-16T20:32:28.517Z,26.07
2018-07-16T20:47:28.721Z,25.96
2018-07-16T21:02:28.445Z,25.91
2018-07-16T21:17:28.140Z,25.78
2018-07-16T21:32:28.340Z,25.68
2018-07-16T21:47:29.052Z,25.61
2018-07-16T22:02:28.156Z,25.48
2018-07-16T22:17:28.167Z,25.47
2018-07-16T22:32:28.192Z,25.40
2018-07-16T22:47:29.220Z,25.46
2018-07-16T23:02:28.659Z,25.39
2018-07-16T23:17:28.209Z,25.27
2018-07-16T23:32:28.112Z,25.20
2018-07-16T23:47:28.202Z,25.10
